createdAt,value
2017-12-19T00:01:05.309Z,17.60
2017-12-19T00:03:33.588Z,16.53
2017-12-19T00:06:01.140Z,13.50
2017-12-19T00:08:29.420Z,18.43
2017-12-19T00:10:56.929Z,18.30
2017-12-19T00:13:24.498Z,18.47
2017-12-19T00:15:51.996Z,19.67
2017-12-19T00:18:19.525Z,19.00
2017-12-19T00:20:47.039Z,18.63
2017-12-19T00:23:14.576Z,17.70
2017-12-19T00:25:42.096Z,18.70
2017-12-19T00:28:09.617Z,17.43
2017-12-19T00:30:37.145Z,17.90
2017-12-19T00:33:04.645Z,17.93
2017-12-19T00:35:32.179Z,19.00
2017-12-19T00:37:59.697Z,17.07
2017-12-19T00:40:27.993Z,17.90
2017-12-19T00:42:55.524Z,17.87
2017-12-19T00:45:23.067Z,19.70
2017-12-19T00:47:50.569Z,17.10
2017-12-19T00:50:18.084Z,16.83
2017-12-19T00:52:45.607Z,17.13
2017-12-19T00:55:13.117Z,18.50
2017-12-19T00:57:41.432Z,17.70
2017-12-19T01:00:08.942Z,19.20
2017-12-19T01:02:36.440Z,16.30
2017-12-19T01:05:03.971Z,18.60
2017-12-19T01:07:32.228Z,18.50
2017-12-19T01:09:59.817Z,17.23
2017-12-19T01:12:27.335Z,16.43
2017-12-19T01:14:54.832Z,18.07
2017-12-19T01:17:22.349Z,17.53
2017-12-19T01:19:49.851Z,17.67
2017-12-19T01:22:17.380Z,18.43
2017-12-19T01:24:45.657Z,17.40
2017-12-19T01:27:13.981Z,17.73
2017-12-19T01:29:41.475Z,18.33
2017-12-19T01:32:09.789Z,20.80
2017-12-19T01:34:37.310Z,16.57
2017-12-19T01:37:04.818Z,17.67
2017-12-19T01:39:32.372Z,17.97
2017-12-19T01:41:59.874Z,16.90
2017-12-19T01:44:27.386Z,18.13
2017-12-19T01:46:54.903Z,17.37
2017-12-19T01:49:22.395Z,19.37
2017-12-19T01:51:49.917Z,19.30
2017-12-19T01:54:18.192Z,18.83
2017-12-19T01:56:45.730Z,19.03
2017-12-19T01:59:13.230Z,18.50
2017-12-19T02:01:41.494Z,17.73
2017-12-19T02:04:09.795Z,20.20
2017-12-19T02:06:37.288Z,22.80
2017-12-19T02:09:04.832Z,19.80
2017-12-19T02:11:32.344Z,24.10
2017-12-19T02:14:00.617Z,24.17
2017-12-19T02:16:28.912Z,23.00
2017-12-19T02:18:56.427Z,22.60
2017-12-19T02:21:25.464Z,23.63
2017-12-19T02:23:52.968Z,20.23
2017-12-19T02:26:20.483Z,20.43
2017-12-19T02:28:47.972Z,25.00
2017-12-19T02:31:15.498Z,21.53
2017-12-19T02:33:43.030Z,20.60
2017-12-19T02:36:11.287Z,22.60
2017-12-19T02:38:38.800Z,21.97
2017-12-19T02:41:06.302Z,20.40
2017-12-19T02:43:33.821Z,23.40
2017-12-19T02:46:01.324Z,16.80
2017-12-19T02:48:29.636Z,20.50
2017-12-19T02:50:57.152Z,21.80
2017-12-19T02:53:24.673Z,19.17
2017-12-19T02:55:52.312Z,18.63
2017-12-19T02:58:19.808Z,21.33
2017-12-19T03:00:47.467Z,20.07
2017-12-19T03:03:15.017Z,18.07
2017-12-19T03:05:42.529Z,22.13
2017-12-19T03:08:10.782Z,20.60
2017-12-19T03:10:38.305Z,21.00
2017-12-19T03:13:06.747Z,18.83
2017-12-19T03:15:34.267Z,21.20
2017-12-19T03:18:01.764Z,19.90
2017-12-19T03:20:29.294Z,21.67
2017-12-19T03:22:56.824Z,20.43
2017-12-19T03:25:24.325Z,18.90
2017-12-19T03:27:52.622Z,24.20
2017-12-19T03:30:20.113Z,34.73
2017-12-19T03:32:47.641Z,20.47
2017-12-19T03:35:15.148Z,20.03
2017-12-19T03:37:42.643Z,23.13
2017-12-19T03:40:10.933Z,19.70
2017-12-19T03:42:38.487Z,20.47
2017-12-19T03:45:06.021Z,22.33
2017-12-19T03:47:34.285Z,22.13
2017-12-19T03:50:01.785Z,21.67
2017-12-19T03:52:30.106Z,24.30
2017-12-19T03:54:57.596Z,23.47
2017-12-19T03:57:25.899Z,22.17
2017-12-19T03:59:53.397Z,21.00
2017-12-19T04:02:20.917Z,22.70
2017-12-19T04:04:48.437Z,23.53
2017-12-19T04:07:16.771Z,21.37
2017-12-19T04:09:44.277Z,19.43
2017-12-19T04:12:12.576Z,22.73
2017-12-19T04:14:40.078Z,21.53
2017-12-19T04:17:07.575Z,18.17
2017-12-19T04:19:35.144Z,21.67
2017-12-19T04:22:02.659Z,22.83
2017-12-19T04:24:30.179Z,24.07
2017-12-19T04:26:57.671Z,22.53
2017-12-19T04:29:25.188Z,22.57
2017-12-19T04:31:52.685Z,26.97
2017-12-19T04:34:20.248Z,25.53
2017-12-19T04:36:48.558Z,26.27
2017-12-19T04:39:16.061Z,27.07
2017-12-19T04:41:43.588Z,26.40
2017-12-19T04:44:11.084Z,21.73
2017-12-19T04:46:38.610Z,26.37
2017-12-19T04:49:06.102Z,28.47
2017-12-19T04:51:34.360Z,28.57
2017-12-19T04:54:01.880Z,30.83
2017-12-19T04:56:29.387Z,22.77
2017-12-19T04:58:56.899Z,26.47
2017-12-19T05:01:24.435Z,26.87
2017-12-19T05:03:51.944Z,28.10
2017-12-19T05:06:19.467Z,30.87
2017-12-19T05:08:46.958Z,27.70
2017-12-19T05:11:14.489Z,26.80
2017-12-19T05:13:41.999Z,29.77
2017-12-19T05:16:09.523Z,27.37
2017-12-19T05:18:37.045Z,30.77
2017-12-19T05:21:04.539Z,34.60
2017-12-19T05:23:32.080Z,25.90
2017-12-19T05:25:59.568Z,29.30
2017-12-19T05:28:27.085Z,31.80
2017-12-19T05:30:54.584Z,25.37
2017-12-19T05:33:22.135Z,27.90
2017-12-19T05:35:49.640Z,30.87
2017-12-19T05:38:17.926Z,31.80
2017-12-19T05:40:45.500Z,24.03
2017-12-19T05:43:13.048Z,27.50
2017-12-19T05:45:40.546Z,27.20
2017-12-19T05:48:08.080Z,33.60
2017-12-19T05:50:35.583Z,25.90
2017-12-19T05:53:03.169Z,29.90
2017-12-19T05:55:30.661Z,28.33
2017-12-19T05:57:58.184Z,29.40
2017-12-19T06:00:25.680Z,28.17
2017-12-19T06:02:53.191Z,33.17
2017-12-19T06:05:21.452Z,34.63
2017-12-19T06:07:49.734Z,31.47
2017-12-19T06:10:18.028Z,31.57
2017-12-19T06:12:45.528Z,31.33
2017-12-19T06:15:13.044Z,29.77
2017-12-19T06:17:40.545Z,28.10
2017-12-19T06:20:08.068Z,32.67
2017-12-19T06:22:35.576Z,28.80
2017-12-19T06:25:03.169Z,30.80
2017-12-19T06:27:30.639Z,28.90
2017-12-19T06:29:58.140Z,31.97
2017-12-19T06:32:25.667Z,35.57
2017-12-19T06:34:53.225Z,32.63
2017-12-19T06:37:20.768Z,31.63
2017-12-19T06:39:48.361Z,32.70
2017-12-19T06:42:15.863Z,33.93
2017-12-19T06:44:44.151Z,27.83
2017-12-19T06:47:11.644Z,29.80
2017-12-19T06:49:39.164Z,32.43
2017-12-19T06:52:06.659Z,30.37
2017-12-19T06:54:34.202Z,29.67
2017-12-19T06:57:01.712Z,34.90
2017-12-19T06:59:29.227Z,31.40
2017-12-19T07:01:56.742Z,32.70
2017-12-19T07:04:25.004Z,30.70
2017-12-19T07:06:53.314Z,29.70
2017-12-19T07:09:20.833Z,34.73
2017-12-19T07:11:48.361Z,37.63
2017-12-19T07:14:15.890Z,35.03
2017-12-19T07:16:43.424Z,28.93
2017-12-19T07:19:11.688Z,36.73
2017-12-19T07:21:39.949Z,37.23
2017-12-19T07:24:07.484Z,26.80
2017-12-19T07:26:34.978Z,34.60
2017-12-19T07:29:03.267Z,32.87
2017-12-19T07:31:31.533Z,31.77
2017-12-19T07:33:59.824Z,29.20
2017-12-19T07:36:28.103Z,34.60
2017-12-19T07:38:55.624Z,33.53
2017-12-19T07:41:23.137Z,31.57
2017-12-19T07:43:50.679Z,31.23
2017-12-19T07:46:18.210Z,35.77
2017-12-19T07:48:46.480Z,32.60
2017-12-19T07:51:14.892Z,35.67
2017-12-19T07:53:42.411Z,36.90
2017-12-19T07:56:09.904Z,33.57
2017-12-19T07:58:37.412Z,37.03
2017-12-19T08:01:04.932Z,36.40
2017-12-19T08:03:32.457Z,35.53
2017-12-19T08:06:00.725Z,33.23
2017-12-19T08:08:28.240Z,31.67
2017-12-19T08:10:55.754Z,33.13
2017-12-19T08:13:24.032Z,34.63
2017-12-19T08:15:51.565Z,30.93
2017-12-19T08:18:19.070Z,36.77
2017-12-19T08:20:46.623Z,32.77
2017-12-19T08:23:14.117Z,37.57
2017-12-19T08:25:41.608Z,34.57
2017-12-19T08:28:09.918Z,34.77
2017-12-19T08:30:37.457Z,32.07
2017-12-19T08:33:04.972Z,36.50
2017-12-19T08:35:32.470Z,36.23
2017-12-19T08:37:59.988Z,35.93
2017-12-19T08:40:27.490Z,34.27
2017-12-19T08:42:55.020Z,32.90
2017-12-19T08:45:22.552Z,40.80
2017-12-19T08:47:50.970Z,36.00
2017-12-19T08:50:18.453Z,32.47
2017-12-19T08:52:45.962Z,35.53
2017-12-19T08:55:13.488Z,29.00
2017-12-19T08:57:41.016Z,38.77
2017-12-19T09:00:08.557Z,35.10
2017-12-19T09:02:36.820Z,36.47
2017-12-19T09:05:05.109Z,39.80
2017-12-19T09:07:33.372Z,35.77
2017-12-19T09:10:00.911Z,37.03
2017-12-19T09:12:28.441Z,33.33
2017-12-19T09:14:55.952Z,34.00
2017-12-19T09:17:24.272Z,34.27
2017-12-19T09:19:51.771Z,29.47
2017-12-19T09:22:19.287Z,35.67
2017-12-19T09:24:46.813Z,34.60
2017-12-19T09:27:14.323Z,35.43
2017-12-19T09:29:41.851Z,35.53
2017-12-19T09:32:09.363Z,38.73
2017-12-19T09:34:36.883Z,36.10
2017-12-19T09:37:04.416Z,28.63
2017-12-19T09:39:31.943Z,31.67
2017-12-19T09:42:00.224Z,28.77
2017-12-19T09:44:28.492Z,32.80
2017-12-19T09:46:56.800Z,29.37
2017-12-19T09:49:24.328Z,29.30
2017-12-19T09:51:52.613Z,24.27
2017-12-19T09:54:20.905Z,31.63
2017-12-19T09:56:48.396Z,30.60
2017-12-19T09:59:15.926Z,34.00
2017-12-19T10:01:43.432Z,29.37
2017-12-19T10:04:10.956Z,28.97
2017-12-19T10:06:38.472Z,31.27
2017-12-19T10:09:06.748Z,26.90
2017-12-19T10:11:35.044Z,32.13
2017-12-19T10:14:02.548Z,29.03
2017-12-19T10:16:30.055Z,36.57
2017-12-19T10:18:57.614Z,32.27
2017-12-19T10:21:25.126Z,35.13
2017-12-19T10:23:52.637Z,29.00
2017-12-19T10:26:20.135Z,29.67
2017-12-19T10:28:47.664Z,30.07
2017-12-19T10:31:15.159Z,28.17
2017-12-19T10:33:42.672Z,27.37
2017-12-19T10:36:10.193Z,30.23
2017-12-19T10:38:38.448Z,26.70
2017-12-19T10:41:05.972Z,24.83
2017-12-19T10:43:33.493Z,21.80
2017-12-19T10:46:01.784Z,27.87
2017-12-19T10:48:29.302Z,27.70
2017-12-19T10:50:56.824Z,25.07
2017-12-19T10:53:24.351Z,23.73
2017-12-19T10:55:51.864Z,25.03
2017-12-19T10:58:19.392Z,27.97
2017-12-19T11:00:46.970Z,25.80
2017-12-19T11:03:14.474Z,26.93
2017-12-19T11:05:42.760Z,23.43
2017-12-19T11:08:10.259Z,27.30
2017-12-19T11:10:37.762Z,21.53
2017-12-19T11:13:06.055Z,19.50
2017-12-19T11:15:33.581Z,20.27
2017-12-19T11:18:01.872Z,17.90
2017-12-19T11:20:30.191Z,22.97
2017-12-19T11:22:57.677Z,25.60
2017-12-19T11:25:25.218Z,31.27
2017-12-19T11:27:52.757Z,28.40
2017-12-19T11:30:20.265Z,31.10
2017-12-19T11:32:48.549Z,29.00
2017-12-19T11:35:16.838Z,28.50
2017-12-19T11:37:44.372Z,24.67
2017-12-19T11:40:12.701Z,24.93
2017-12-19T11:42:40.192Z,20.60
2017-12-19T11:45:07.750Z,22.53
2017-12-19T11:47:35.268Z,28.77
2017-12-19T11:50:02.814Z,29.03
2017-12-19T11:52:30.340Z,28.33
2017-12-19T11:54:58.612Z,29.30
2017-12-19T11:57:26.901Z,26.73
2017-12-19T11:59:54.421Z,24.50
2017-12-19T12:02:21.952Z,25.90
2017-12-19T12:04:49.452Z,28.20
2017-12-19T12:07:16.973Z,26.70
2017-12-19T12:09:44.502Z,26.60
2017-12-19T12:12:12.008Z,24.30
2017-12-19T12:14:39.524Z,24.73
2017-12-19T12:17:07.022Z,27.63
2017-12-19T12:19:34.541Z,28.77
2017-12-19T12:22:02.071Z,25.33
2017-12-19T12:24:30.349Z,25.27
2017-12-19T12:26:57.910Z,26.13
2017-12-19T12:29:25.432Z,25.50
2017-12-19T12:31:52.961Z,20.57
2017-12-19T12:34:20.488Z,22.20
2017-12-19T12:36:48.011Z,20.70
2017-12-19T12:39:16.308Z,27.33
2017-12-19T12:41:44.587Z,26.57
2017-12-19T12:44:12.854Z,25.50
2017-12-19T12:46:41.139Z,25.83
2017-12-19T12:49:09.397Z,25.23
2017-12-19T12:51:37.686Z,25.27
2017-12-19T12:54:05.960Z,25.03
2017-12-19T12:56:34.252Z,23.73
2017-12-19T12:59:01.768Z,27.77
2017-12-19T13:01:29.268Z,26.97
2017-12-19T13:03:56.819Z,25.00
2017-12-19T13:06:24.343Z,24.33
2017-12-19T13:08:51.880Z,23.40
2017-12-19T13:11:19.388Z,24.37
2017-12-19T13:13:47.685Z,25.73
2017-12-19T13:16:15.192Z,22.83
2017-12-19T13:18:42.717Z,26.03
2017-12-19T13:21:10.257Z,21.40
2017-12-19T13:23:37.814Z,22.37
2017-12-19T13:26:05.328Z,23.30
2017-12-19T13:28:32.825Z,26.47
2017-12-19T13:31:00.394Z,23.43
2017-12-19T13:33:27.936Z,24.83
2017-12-19T13:35:55.507Z,18.43
2017-12-19T13:38:23.012Z,18.10
2017-12-19T13:40:50.516Z,18.00
2017-12-19T13:43:18.046Z,20.93
2017-12-19T13:45:46.315Z,18.40
2017-12-19T13:48:13.876Z,15.17
2017-12-19T13:50:42.274Z,17.43
2017-12-19T13:53:09.780Z,17.83
2017-12-19T13:55:37.321Z,21.63
2017-12-19T13:58:04.868Z,16.17
2017-12-19T14:00:32.408Z,20.03
2017-12-19T14:02:59.916Z,18.90
2017-12-19T14:05:27.420Z,16.90
2017-12-19T14:07:54.952Z,22.93
2017-12-19T14:10:22.457Z,21.10
2017-12-19T14:12:49.996Z,20.93
2017-12-19T14:15:17.507Z,25.43
2017-12-19T14:17:45.012Z,22.03
2017-12-19T14:20:12.544Z,21.50
2017-12-19T14:22:40.824Z,20.83
2017-12-19T14:25:09.120Z,20.33
2017-12-19T14:27:36.626Z,21.40
2017-12-19T14:30:04.167Z,22.13
2017-12-19T14:32:31.669Z,21.80
2017-12-19T14:35:00.695Z,19.57
2017-12-19T14:37:28.232Z,20.77
2017-12-19T14:39:56.499Z,21.20
2017-12-19T14:42:24.803Z,19.40
2017-12-19T14:44:52.317Z,16.27
2017-12-19T14:47:19.827Z,23.13
2017-12-19T14:49:47.362Z,23.63
2017-12-19T14:52:15.627Z,21.77
2017-12-19T14:54:43.889Z,29.03
2017-12-19T14:57:11.416Z,25.80
2017-12-19T14:59:38.946Z,26.47
2017-12-19T15:02:06.456Z,25.73
2017-12-19T15:04:33.970Z,23.97
2017-12-19T15:07:01.492Z,25.10
2017-12-19T15:09:29.794Z,24.43
2017-12-19T15:11:57.318Z,21.67
2017-12-19T15:14:25.651Z,28.70
2017-12-19T15:16:53.288Z,23.73
2017-12-19T15:19:20.809Z,22.10
2017-12-19T15:21:49.086Z,27.90
2017-12-19T15:24:17.392Z,27.93
2017-12-19T15:26:44.895Z,31.10
2017-12-19T15:29:12.417Z,26.10
2017-12-19T15:31:39.952Z,26.37
2017-12-19T15:34:08.238Z,24.57
2017-12-19T15:36:35.769Z,27.53
2017-12-19T15:39:04.047Z,25.27
2017-12-19T15:41:32.381Z,25.87
2017-12-19T15:43:59.903Z,19.67
2017-12-19T15:46:27.438Z,22.97
2017-12-19T15:48:55.727Z,24.97
2017-12-19T15:51:24.003Z,21.73
2017-12-19T15:53:51.587Z,26.33
2017-12-19T15:56:19.836Z,20.93
2017-12-19T15:58:48.131Z,23.87
2017-12-19T16:01:15.676Z,21.57
2017-12-19T16:03:43.770Z,26.40
2017-12-19T16:06:11.260Z,23.87
2017-12-19T16:08:38.790Z,24.40
2017-12-19T16:11:06.284Z,25.67
2017-12-19T16:13:33.836Z,19.50
2017-12-19T16:16:01.361Z,19.37
2017-12-19T16:18:28.940Z,19.97
2017-12-19T16:20:56.497Z,18.20
2017-12-19T16:23:24.010Z,20.50
2017-12-19T16:25:51.535Z,19.53
2017-12-19T16:28:19.067Z,19.00
2017-12-19T16:30:46.645Z,15.63
2017-12-19T16:33:14.182Z,18.20
2017-12-19T16:35:41.708Z,13.87
2017-12-19T16:38:09.256Z,15.63
2017-12-19T16:40:36.778Z,14.13
2017-12-19T16:43:04.312Z,20.43
2017-12-19T16:45:31.847Z,21.07
2017-12-19T16:47:59.382Z,19.80
2017-12-19T16:50:26.896Z,21.57
2017-12-19T16:52:54.393Z,18.90
2017-12-19T16:55:21.933Z,21.30
2017-12-19T16:57:49.458Z,20.57
2017-12-19T17:00:17.130Z,22.30
2017-12-19T17:02:44.628Z,23.93
2017-12-19T17:05:12.948Z,25.63
2017-12-19T17:07:40.480Z,25.37
2017-12-19T17:10:08.004Z,23.67
2017-12-19T17:12:36.390Z,22.30
2017-12-19T17:15:04.670Z,22.90
2017-12-19T17:17:32.934Z,22.87
2017-12-19T17:20:01.240Z,23.33
2017-12-19T17:22:28.782Z,21.63
2017-12-19T17:24:56.300Z,25.77
2017-12-19T17:27:23.821Z,23.27
2017-12-19T17:29:51.382Z,26.10
2017-12-19T17:32:18.880Z,20.83
2017-12-19T17:34:46.428Z,29.40
2017-12-19T17:37:13.947Z,22.77
2017-12-19T17:39:41.457Z,27.97
2017-12-19T17:42:09.024Z,24.17
2017-12-19T17:44:36.543Z,25.40
2017-12-19T17:47:04.082Z,26.27
2017-12-19T17:49:31.609Z,28.13
2017-12-19T17:51:59.916Z,27.57
2017-12-19T17:54:27.426Z,26.17
2017-12-19T17:56:54.936Z,30.80
2017-12-19T17:59:22.504Z,31.77
2017-12-19T18:01:50.047Z,34.03
2017-12-19T18:04:17.555Z,29.50
2017-12-19T18:06:45.098Z,28.80
2017-12-19T18:09:12.618Z,29.67
2017-12-19T18:11:40.138Z,26.93
2017-12-19T18:14:07.670Z,30.20
2017-12-19T18:16:35.180Z,30.20
2017-12-19T18:19:02.703Z,28.30
2017-12-19T18:21:30.260Z,27.13
2017-12-19T18:23:57.809Z,24.20
2017-12-19T18:26:25.346Z,26.53
2017-12-19T18:28:52.880Z,23.63
2017-12-19T18:31:20.418Z,26.43
2017-12-19T18:33:48.813Z,19.57
2017-12-19T18:36:16.369Z,22.80
2017-12-19T18:38:43.903Z,23.00
2017-12-19T18:41:12.218Z,22.30
2017-12-19T18:43:39.722Z,21.20
2017-12-19T18:46:07.255Z,23.10
2017-12-19T18:48:34.781Z,23.00
2017-12-19T18:51:02.347Z,22.13
2017-12-19T18:53:29.974Z,20.17
2017-12-19T18:55:58.253Z,24.47
2017-12-19T18:58:26.540Z,22.47
2017-12-19T19:00:54.160Z,24.70
2017-12-19T19:03:21.720Z,22.60
2017-12-19T19:05:49.230Z,22.07
2017-12-19T19:08:16.729Z,18.43
2017-12-19T19:10:44.275Z,20.83
2017-12-19T19:13:12.013Z,20.97
2017-12-19T19:15:39.557Z,17.67
2017-12-19T19:18:07.088Z,15.07
2017-12-19T19:20:35.417Z,15.60
2017-12-19T19:23:02.932Z,19.10
2017-12-19T19:25:31.226Z,20.67
2017-12-19T19:27:58.808Z,22.00
2017-12-19T19:30:26.321Z,24.27
2017-12-19T19:32:54.623Z,19.97
2017-12-19T19:35:22.148Z,20.43
2017-12-19T19:37:50.472Z,22.67
2017-12-19T19:40:17.989Z,19.17
2017-12-19T19:42:46.272Z,21.10
2017-12-19T19:45:13.815Z,22.33
2017-12-19T19:47:42.092Z,21.77
2017-12-19T19:50:10.400Z,23.60
2017-12-19T19:52:37.894Z,22.87
2017-12-19T19:55:05.561Z,20.40
2017-12-19T19:57:33.080Z,21.10
2017-12-19T20:00:00.589Z,17.60
2017-12-19T20:02:28.149Z,16.10
2017-12-19T20:04:55.669Z,15.47
2017-12-19T20:07:23.227Z,17.83
2017-12-19T20:09:50.753Z,17.60
2017-12-19T20:12:18.312Z,18.67
2017-12-19T20:14:45.838Z,17.67
2017-12-19T20:17:13.441Z,16.13
2017-12-19T20:19:40.971Z,15.37
2017-12-19T20:22:09.262Z,15.07
2017-12-19T20:24:36.851Z,16.60
2017-12-19T20:27:04.395Z,16.60
2017-12-19T20:29:31.909Z,17.93
2017-12-19T20:31:59.472Z,21.23
2017-12-19T20:34:27.758Z,19.23
2017-12-19T20:36:55.357Z,22.23
2017-12-19T20:39:22.876Z,22.57
2017-12-19T20:41:51.205Z,21.67
2017-12-19T20:44:18.766Z,20.63
2017-12-19T20:46:46.321Z,21.20
2017-12-19T20:49:13.862Z,17.33
2017-12-19T20:51:41.397Z,21.13
2017-12-19T20:54:08.931Z,18.13
2017-12-19T20:56:36.471Z,18.63
2017-12-19T20:59:03.997Z,23.17
2017-12-19T21:01:31.535Z,25.50
2017-12-19T21:03:59.099Z,21.47
2017-12-19T21:06:26.612Z,24.10
2017-12-19T21:08:55.631Z,22.77
2017-12-19T21:11:23.955Z,19.97
2017-12-19T21:13:51.479Z,16.70
2017-12-19T21:16:19.130Z,21.20
2017-12-19T21:18:46.813Z,17.97
2017-12-19T21:21:14.362Z,23.30
2017-12-19T21:23:41.873Z,21.73
2017-12-19T21:26:09.495Z,23.97
2017-12-19T21:28:37.045Z,22.77
2017-12-19T21:31:04.646Z,19.90
2017-12-19T21:33:32.213Z,17.87
2017-12-19T21:35:59.732Z,18.33
2017-12-19T21:38:27.280Z,21.20
2017-12-19T21:40:54.804Z,26.70
2017-12-19T21:43:23.075Z,23.80
2017-12-19T21:45:51.397Z,26.30
2017-12-19T21:48:18.948Z,25.97
2017-12-19T21:50:46.509Z,25.90
2017-12-19T21:53:14.026Z,26.67
2017-12-19T21:55:42.385Z,19.73
2017-12-19T21:58:10.052Z,26.37
2017-12-19T22:00:37.628Z,19.83
2017-12-19T22:03:05.922Z,27.20
2017-12-19T22:05:33.435Z,20.67
2017-12-19T22:08:00.979Z,23.20
2017-12-19T22:10:28.492Z,21.23
2017-12-19T22:12:56.020Z,21.80
2017-12-19T22:15:23.566Z,27.47
2017-12-19T22:17:51.141Z,22.60
2017-12-19T22:20:19.420Z,19.57
2017-12-19T22:22:47.706Z,21.27
2017-12-19T22:25:16.222Z,23.57
2017-12-19T22:27:43.749Z,20.10
2017-12-19T22:30:11.271Z,21.30
2017-12-19T22:32:38.886Z,20.50
2017-12-19T22:35:06.396Z,23.67
2017-12-19T22:37:33.956Z,22.50
2017-12-19T22:40:01.601Z,24.83
2017-12-19T22:42:29.129Z,24.73
2017-12-19T22:44:56.652Z,24.73
2017-12-19T22:47:24.924Z,24.43
2017-12-19T22:49:53.215Z,31.47
2017-12-19T22:52:20.733Z,24.10
2017-12-19T22:54:48.257Z,25.47
2017-12-19T22:57:15.795Z,26.07
2017-12-19T22:59:43.308Z,21.40
2017-12-19T23:02:10.855Z,28.67
2017-12-19T23:04:38.378Z,24.77
2017-12-19T23:07:05.942Z,25.93
2017-12-19T23:09:33.466Z,30.53
2017-12-19T23:12:01.732Z,27.97
2017-12-19T23:14:30.003Z,31.10
2017-12-19T23:16:58.327Z,29.20
2017-12-19T23:19:25.877Z,30.03
2017-12-19T23:21:53.378Z,27.60
2017-12-19T23:24:20.896Z,25.37
2017-12-19T23:26:48.410Z,27.50
2017-12-19T23:29:16.707Z,29.73
2017-12-19T23:31:44.222Z,24.77
2017-12-19T23:34:11.732Z,24.20
2017-12-19T23:36:39.288Z,25.57
2017-12-19T23:39:06.800Z,25.90
2017-12-19T23:41:34.296Z,23.93
2017-12-19T23:44:01.841Z,27.07
2017-12-19T23:46:30.128Z,25.77
2017-12-19T23:48:57.673Z,27.37
2017-12-19T23:51:25.940Z,21.40
2017-12-19T23:53:53.461Z,24.60
2017-12-19T23:56:20.970Z,29.27
2017-12-19T23:58:49.267Z,23.17
